Time;durP1;ratioP1;P1;durP2;ratioP2;P2;SDS_P1;SDS_P2;PMS_P1;PMS_P2;Temp;Humidity;BMP_temperature;BMP_pressure;BME280_temperature;BME280_humidity;BME280_pressure;Samples;Min_cycle;Max_cycle;Signal;HPM_P1;HPM_P2
2023/07/31 00:00:51;;;;;;;4.95;3.30;;;16.70;99.90;;;;;;5022908;28;20069;-64
2023/07/31 00:03:18;;;;;;;4.00;2.90;;;16.70;99.90;;;;;;5024663;28;20057;-65
2023/07/31 00:05:45;;;;;;;5.20;3.35;;;16.70;99.90;;;;;;5023109;28;20491;-67
2023/07/31 00:08:12;;;;;;;3.65;3.25;;;16.70;99.90;;;;;;5023373;28;20395;-66
2023/07/31 00:10:39;;;;;;;3.25;2.95;;;16.70;99.90;;;;;;5021642;28;20055;-65
2023/07/31 00:13:06;;;;;;;5.28;3.33;;;16.70;99.90;;;;;;5022300;28;20095;-66
2023/07/31 00:15:32;;;;;;;3.92;3.25;;;16.70;99.90;;;;;;5019371;28;20057;-65
2023/07/31 00:18:01;;;;;;;3.38;3.08;;;16.70;99.90;;;;;;5023708;28;20037;-65
2023/07/31 00:20:28;;;;;;;4.75;3.47;;;16.70;99.90;;;;;;5020524;28;20034;-64
2023/07/31 00:22:55;;;;;;;6.47;3.95;;;16.70;99.90;;;;;;5028054;28;20041;-65
2023/07/31 00:25:21;;;;;;;4.93;3.38;;;16.60;99.90;;;;;;5023370;28;20049;-66
2023/07/31 00:27:48;;;;;;;3.70;3.13;;;16.60;99.90;;;;;;5023239;28;20061;-64
2023/07/31 00:30:16;;;;;;;3.25;2.92;;;16.60;99.90;;;;;;5024453;28;20453;-65
2023/07/31 00:32:43;;;;;;;3.00;2.40;;;16.60;99.90;;;;;;5024633;28;20084;-66
2023/07/31 00:35:09;;;;;;;4.47;3.22;;;16.60;99.90;;;;;;5024812;28;20066;-65
2023/07/31 00:37:36;;;;;;;3.72;3.42;;;16.60;99.90;;;;;;5019682;28;20049;-66
2023/07/31 00:40:04;;;;;;;3.10;2.80;;;16.50;99.90;;;;;;5024428;28;20069;-65
2023/07/31 00:42:31;;;;;;;3.45;2.85;;;16.50;99.90;;;;;;5021854;28;20094;-65
2023/07/31 00:44:58;;;;;;;2.95;2.67;;;16.50;99.90;;;;;;5021488;28;20494;-64
2023/07/31 00:47:25;;;;;;;3.47;2.45;;;16.50;99.90;;;;;;5024353;28;20443;-65
2023/07/31 00:49:52;;;;;;;4.22;3.40;;;16.50;99.90;;;;;;5022847;28;20091;-65
2023/07/31 00:52:20;;;;;;;14.60;2.90;;;16.50;99.90;;;;;;5015842;28;20551;-65
2023/07/31 00:54:48;;;;;;;4.25;3.05;;;16.60;99.90;;;;;;5018559;28;20049;-65
2023/07/31 00:57:15;;;;;;;3.72;3.13;;;16.60;99.90;;;;;;5023673;28;20045;-65
2023/07/31 00:59:42;;;;;;;3.25;1.98;;;16.60;99.90;;;;;;5024010;28;20069;-64
2023/07/31 01:02:09;;;;;;;2.80;2.15;;;16.70;99.90;;;;;;5021477;28;20057;-67
2023/07/31 01:04:37;;;;;;;2.83;2.10;;;16.60;99.90;;;;;;5022002;28;20049;-64
2023/07/31 01:07:04;;;;;;;2.65;2.15;;;16.70;99.90;;;;;;5024394;28;20148;-65
2023/07/31 01:09:36;;;;;;;4.35;2.42;;;16.70;99.90;;;;;;5020546;28;20055;-64
2023/07/31 01:12:06;;;;;;;3.47;2.10;;;16.80;99.90;;;;;;5024939;28;20045;-65
2023/07/31 01:14:33;;;;;;;2.75;2.45;;;16.70;99.90;;;;;;5022014;28;20403;-65
2023/07/31 01:17:00;;;;;;;3.10;2.20;;;16.70;99.90;;;;;;5019969;28;20045;-66
2023/07/31 01:19:29;;;;;;;3.28;2.40;;;16.80;99.90;;;;;;5022489;28;20458;-64
2023/07/31 01:22:05;;;;;;;2.85;2.35;;;16.80;99.90;;;;;;5023831;28;20046;-65
2023/07/31 01:24:41;;;;;;;5.65;2.58;;;16.80;99.90;;;;;;5021184;28;20485;-66
2023/07/31 01:27:17;;;;;;;4.40;2.55;;;16.80;99.90;;;;;;5025137;28;20053;-66
2023/07/31 01:29:52;;;;;;;3.72;1.98;;;16.80;99.90;;;;;;5021132;28;20045;-65
2023/07/31 01:32:20;;;;;;;2.38;2.20;;;16.80;99.90;;;;;;5024676;28;20049;-65
2023/07/31 01:34:48;;;;;;;2.28;2.08;;;16.80;99.90;;;;;;5025005;28;20456;-65
2023/07/31 01:37:15;;;;;;;2.92;1.98;;;16.80;99.90;;;;;;5018932;28;20391;-65
2023/07/31 01:39:42;;;;;;;2.60;1.92;;;16.80;99.90;;;;;;5021265;28;20049;-65
2023/07/31 01:42:10;;;;;;;1.83;1.73;;;16.80;99.90;;;;;;5019600;28;20052;-65
2023/07/31 01:44:37;;;;;;;4.55;2.33;;;16.80;99.90;;;;;;5034385;28;20136;-65
2023/07/31 01:47:05;;;;;;;3.78;2.28;;;16.70;99.90;;;;;;5024417;28;20053;-65
2023/07/31 01:49:32;;;;;;;3.95;1.88;;;16.70;99.90;;;;;;5023123;28;20052;-67
2023/07/31 01:52:00;;;;;;;3.33;2.03;;;16.70;99.90;;;;;;5019534;28;20557;-67
2023/07/31 01:54:26;;;;;;;3.03;2.33;;;16.60;99.90;;;;;;5019648;28;20682;-65
2023/07/31 01:56:53;;;;;;;3.42;1.95;;;16.60;99.90;;;;;;5023348;28;20522;-65
2023/07/31 01:59:20;;;;;;;3.42;2.40;;;16.50;99.90;;;;;;5021944;28;20046;-64
2023/07/31 02:01:47;;;;;;;3.33;2.35;;;16.50;99.90;;;;;;5022112;28;20037;-65
2023/07/31 02:04:15;;;;;;;3.15;2.70;;;16.50;99.90;;;;;;5022700;28;20149;-67
2023/07/31 02:06:43;;;;;;;4.07;2.55;;;16.50;99.90;;;;;;5019343;28;20065;-65
2023/07/31 02:09:10;;;;;;;3.95;2.33;;;16.50;99.90;;;;;;5019981;28;20042;-65
2023/07/31 02:11:37;;;;;;;5.10;3.05;;;16.50;99.90;;;;;;5020306;28;20153;-67
2023/07/31 02:14:04;;;;;;;5.15;2.50;;;16.50;99.90;;;;;;5019988;28;20575;-64
2023/07/31 02:16:31;;;;;;;4.88;3.28;;;16.40;99.90;;;;;;5025162;28;20030;-65
2023/07/31 02:18:58;;;;;;;3.80;2.25;;;16.40;99.90;;;;;;5021084;28;20053;-65
2023/07/31 02:21:25;;;;;;;4.80;2.72;;;16.30;99.90;;;;;;5021124;28;20759;-65
2023/07/31 02:23:52;;;;;;;6.38;3.20;;;16.30;99.90;;;;;;5021918;28;20085;-66
2023/07/31 02:26:19;;;;;;;4.10;2.88;;;16.40;99.90;;;;;;5027283;28;20042;-64
2023/07/31 02:28:46;;;;;;;5.88;3.67;;;16.40;99.90;;;;;;5020553;28;20076;-65
2023/07/31 02:31:12;;;;;;;3.22;2.80;;;16.40;99.90;;;;;;5023311;28;20123;-65
2023/07/31 02:33:39;;;;;;;4.50;4.10;;;16.40;99.90;;;;;;5021322;28;20092;-68
2023/07/31 02:36:06;;;;;;;3.00;2.15;;;16.40;99.90;;;;;;5024368;28;20073;-66
2023/07/31 02:38:33;;;;;;;6.07;3.30;;;16.40;99.90;;;;;;5020116;28;20053;-64
2023/07/31 02:41:00;;;;;;;2.78;2.58;;;16.30;99.90;;;;;;5021635;28;20399;-67
2023/07/31 02:43:27;;;;;;;5.07;2.90;;;16.30;99.90;;;;;;5018694;28;20052;-65
2023/07/31 02:45:54;;;;;;;2.80;2.53;;;16.30;99.90;;;;;;5020087;28;20056;-65
2023/07/31 02:48:23;;;;;;;2.92;2.53;;;16.40;99.90;;;;;;5021470;28;20053;-65
2023/07/31 02:50:50;;;;;;;3.72;2.50;;;16.30;99.90;;;;;;5024857;28;20562;-65
2023/07/31 02:53:17;;;;;;;4.47;2.95;;;16.40;99.90;;;;;;5016613;28;20053;-65
2023/07/31 02:55:44;;;;;;;4.00;3.03;;;16.40;99.90;;;;;;5023604;28;20418;-67
2023/07/31 02:58:10;;;;;;;3.05;2.75;;;16.40;99.90;;;;;;5022574;28;20042;-66
2023/07/31 03:00:42;;;;;;;6.38;2.72;;;16.40;99.90;;;;;;5023487;28;20140;-65
2023/07/31 03:03:09;;;;;;;2.67;2.47;;;16.40;99.90;;;;;;5038252;28;20069;-65
2023/07/31 03:05:37;;;;;;;4.00;2.60;;;16.50;99.90;;;;;;5020140;28;20955;-66
2023/07/31 03:08:04;;;;;;;4.65;2.60;;;16.60;99.90;;;;;;5020627;28;20049;-64
2023/07/31 03:10:30;;;;;;;2.90;2.50;;;16.80;99.90;;;;;;5022078;28;20077;-65
2023/07/31 03:12:58;;;;;;;3.60;3.22;;;16.80;99.90;;;;;;5019455;28;20056;-66
2023/07/31 03:15:25;;;;;;;6.18;2.80;;;16.90;99.90;;;;;;5024795;28;20065;-65
2023/07/31 03:17:51;;;;;;;3.80;1.90;;;16.90;99.90;;;;;;5039136;28;20620;-67
2023/07/31 03:20:18;;;;;;;5.22;3.45;;;17.00;99.90;;;;;;5023054;28;20791;-65
2023/07/31 03:22:46;;;;;;;2.97;2.78;;;17.00;99.90;;;;;;5025070;28;20079;-64
2023/07/31 03:25:14;;;;;;;3.58;2.38;;;17.10;99.90;;;;;;5021499;28;20819;-68
2023/07/31 03:27:41;;;;;;;3.22;2.22;;;17.00;99.90;;;;;;5027066;28;20041;-67
2023/07/31 03:30:08;;;;;;;2.92;2.22;;;17.10;99.90;;;;;;5025433;28;20167;-65
2023/07/31 03:32:36;;;;;;;4.97;2.38;;;17.10;99.90;;;;;;5023888;28;20050;-66
2023/07/31 03:35:05;;;;;;;5.10;1.80;;;17.10;99.90;;;;;;5041377;28;20049;-65
2023/07/31 03:37:32;;;;;;;4.70;2.22;;;17.00;99.90;;;;;;5026991;28;20487;-67
2023/07/31 03:39:59;;;;;;;2.65;1.83;;;17.00;99.90;;;;;;5024805;28;20052;-65
2023/07/31 03:42:26;;;;;;;2.88;1.60;;;16.90;99.90;;;;;;5023447;28;20050;-65
2023/07/31 03:44:53;;;;;;;4.30;1.45;;;16.90;99.90;;;;;;5022313;28;20417;-66
2023/07/31 03:47:20;;;;;;;3.83;1.52;;;16.80;99.90;;;;;;5026791;28;20045;-65
2023/07/31 03:49:47;;;;;;;1.67;1.48;;;16.80;99.90;;;;;;5024879;28;20077;-64
2023/07/31 03:52:14;;;;;;;5.15;2.17;;;16.70;99.90;;;;;;5023677;28;20048;-64
2023/07/31 03:54:41;;;;;;;5.20;2.20;;;16.70;99.90;;;;;;5023517;28;20509;-64
2023/07/31 03:57:08;;;;;;;3.25;1.50;;;16.70;99.90;;;;;;5022117;28;20070;-66
2023/07/31 03:59:35;;;;;;;2.35;1.52;;;16.70;99.90;;;;;;5023510;28;20461;-66
2023/07/31 04:02:02;;;;;;;4.22;1.95;;;16.70;99.90;;;;;;5023325;28;20108;-64
2023/07/31 04:04:29;;;;;;;4.93;1.63;;;16.60;99.90;;;;;;5023701;28;20080;-65
2023/07/31 04:06:55;;;;;;;3.83;2.53;;;16.60;99.90;;;;;;5026974;28;20061;-66
2023/07/31 04:09:22;;;;;;;6.55;1.92;;;16.60;99.90;;;;;;5023522;28;20188;-65
2023/07/31 04:11:49;;;;;;;2.63;1.70;;;16.60;99.90;;;;;;5022313;28;20037;-65
2023/07/31 04:14:17;;;;;;;3.10;1.70;;;16.60;99.90;;;;;;5020062;28;20108;-66
2023/07/31 04:16:43;;;;;;;2.08;1.55;;;16.50;99.90;;;;;;5021893;28;20411;-65
2023/07/31 04:19:10;;;;;;;2.92;2.08;;;16.60;99.90;;;;;;5024602;28;20056;-65
2023/07/31 04:21:37;;;;;;;5.55;2.30;;;16.60;99.90;;;;;;5022614;28;20077;-65
2023/07/31 04:24:04;;;;;;;1.73;1.50;;;16.50;99.90;;;;;;5018072;28;20129;-65
2023/07/31 04:26:31;;;;;;;2.63;1.42;;;16.50;99.90;;;;;;5017335;28;20045;-65
2023/07/31 04:28:58;;;;;;;3.88;1.58;;;16.40;99.90;;;;;;5025287;28;20065;-64
2023/07/31 04:31:25;;;;;;;2.38;2.15;;;16.40;99.90;;;;;;5026074;28;20125;-65
2023/07/31 04:33:51;;;;;;;2.22;1.85;;;16.30;99.90;;;;;;5023341;28;20059;-66
2023/07/31 04:36:18;;;;;;;4.97;2.00;;;16.20;99.90;;;;;;5029656;28;20060;-65
2023/07/31 04:38:45;;;;;;;2.78;1.33;;;16.20;99.90;;;;;;5022349;28;20076;-65
2023/07/31 04:41:12;;;;;;;1.50;1.05;;;16.10;99.90;;;;;;5027075;28;20061;-65
2023/07/31 04:43:39;;;;;;;5.53;2.00;;;16.10;99.90;;;;;;5021603;28;20045;-67
2023/07/31 04:46:06;;;;;;;5.85;2.28;;;16.00;99.90;;;;;;5024495;28;20064;-65
2023/07/31 04:48:33;;;;;;;1.98;0.95;;;16.00;99.90;;;;;;5021144;28;20041;-67
2023/07/31 04:51:00;;;;;;;2.42;1.55;;;16.00;99.90;;;;;;5021820;28;20057;-64
2023/07/31 04:53:27;;;;;;;3.40;1.33;;;15.90;99.90;;;;;;5021592;28;20420;-65
2023/07/31 04:55:54;;;;;;;2.78;1.50;;;15.90;99.90;;;;;;5021693;28;20103;-65
2023/07/31 04:58:21;;;;;;;3.28;1.92;;;15.80;99.90;;;;;;5023917;28;20054;-64
2023/07/31 05:00:48;;;;;;;7.30;1.83;;;15.80;99.90;;;;;;5023091;28;20240;-65
2023/07/31 05:03:15;;;;;;;2.05;1.42;;;15.80;99.90;;;;;;5023876;28;20045;-65
2023/07/31 05:05:42;;;;;;;4.30;1.88;;;15.80;99.90;;;;;;5019733;28;20047;-64
2023/07/31 05:08:09;;;;;;;2.75;1.77;;;15.80;99.90;;;;;;5024770;28;20171;-65
2023/07/31 05:10:35;;;;;;;7.65;1.98;;;15.80;99.90;;;;;;5021796;28;20396;-65
2023/07/31 05:13:02;;;;;;;4.00;1.70;;;15.80;99.90;;;;;;5025946;28;20041;-65
2023/07/31 05:15:29;;;;;;;6.03;1.95;;;15.80;99.90;;;;;;5023009;28;20550;-65
2023/07/31 05:17:56;;;;;;;4.10;1.92;;;15.70;99.90;;;;;;5021492;28;20116;-65
2023/07/31 05:20:23;;;;;;;4.45;1.98;;;15.70;99.90;;;;;;5020257;28;20045;-65
2023/07/31 05:22:51;;;;;;;6.95;2.10;;;15.70;99.90;;;;;;5022040;28;20435;-65
2023/07/31 05:25:18;;;;;;;6.25;2.72;;;15.60;99.90;;;;;;5017659;28;20040;-65
2023/07/31 05:27:45;;;;;;;2.55;1.65;;;15.60;99.90;;;;;;5024673;28;20096;-66
2023/07/31 05:30:12;;;;;;;4.22;2.25;;;15.60;99.90;;;;;;5020754;28;20049;-65
2023/07/31 05:32:38;;;;;;;3.33;2.22;;;15.50;99.90;;;;;;5024348;28;20073;-65
2023/07/31 05:35:06;;;;;;;4.10;2.53;;;15.50;99.90;;;;;;5023611;28;20681;-65
2023/07/31 05:37:33;;;;;;;4.43;1.88;;;15.50;99.90;;;;;;5031458;28;20695;-66
2023/07/31 05:39:59;;;;;;;3.63;2.42;;;15.50;99.90;;;;;;5020693;28;20045;-66
2023/07/31 05:42:26;;;;;;;9.43;2.40;;;15.50;99.90;;;;;;5021192;28;20095;-65
2023/07/31 05:44:54;;;;;;;4.68;2.63;;;15.40;99.90;;;;;;5021044;28;20128;-65
2023/07/31 05:47:20;;;;;;;3.60;2.28;;;15.40;99.90;;;;;;5022057;28;20494;-64
2023/07/31 05:49:49;;;;;;;6.70;2.30;;;15.40;99.90;;;;;;5024427;28;20765;-65
2023/07/31 05:52:16;;;;;;;4.72;2.08;;;15.40;99.90;;;;;;5024701;28;20052;-65
2023/07/31 05:54:43;;;;;;;4.40;2.38;;;15.30;99.90;;;;;;5022301;28;20379;-65
2023/07/31 05:57:10;;;;;;;5.97;2.92;;;15.30;99.90;;;;;;5025721;28;20052;-66
2023/07/31 05:59:37;;;;;;;5.63;2.60;;;15.20;99.90;;;;;;5022472;28;20148;-65
2023/07/31 06:02:04;;;;;;;3.90;2.22;;;15.20;99.90;;;;;;5024704;28;20045;-65
2023/07/31 06:04:31;;;;;;;18.98;4.45;;;15.10;99.90;;;;;;5024405;28;20495;-65
2023/07/31 06:06:58;;;;;;;3.67;2.40;;;15.10;99.90;;;;;;5026573;28;20137;-64
2023/07/31 06:09:25;;;;;;;4.00;2.22;;;15.10;99.90;;;;;;5021503;28;20453;-64
2023/07/31 06:11:52;;;;;;;6.63;3.65;;;15.10;99.90;;;;;;5022668;28;20045;-65
2023/07/31 06:14:19;;;;;;;4.15;1.98;;;15.10;99.90;;;;;;5024306;28;20129;-64
2023/07/31 06:16:46;;;;;;;4.72;2.55;;;15.10;99.90;;;;;;5020166;28;20037;-64
2023/07/31 06:19:13;;;;;;;2.47;2.15;;;15.10;99.90;;;;;;5017192;28;20033;-65
2023/07/31 06:21:42;;;;;;;3.65;2.40;;;15.00;99.90;;;;;;5025566;28;20518;-64
2023/07/31 06:24:09;;;;;;;2.70;1.73;;;15.00;99.90;;;;;;5021971;28;20044;-64
2023/07/31 06:26:36;;;;;;;5.38;2.63;;;15.10;99.90;;;;;;5022844;28;20092;-65
2023/07/31 06:29:03;;;;;;;3.78;2.25;;;15.00;99.90;;;;;;5023389;28;20037;-64
2023/07/31 06:31:30;;;;;;;3.33;2.10;;;15.10;99.90;;;;;;5023495;28;20084;-65
2023/07/31 06:33:57;;;;;;;4.38;1.98;;;15.10;99.90;;;;;;5022092;28;20049;-64
2023/07/31 06:36:24;;;;;;;3.97;1.85;;;15.10;99.90;;;;;;5022964;28;20168;-65
2023/07/31 06:38:51;;;;;;;7.80;2.53;;;15.10;99.90;;;;;;5019461;28;20464;-64
2023/07/31 06:41:18;;;;;;;4.63;2.15;;;15.20;99.90;;;;;;5022819;28;20498;-65
2023/07/31 06:43:45;;;;;;;3.63;2.10;;;15.30;99.90;;;;;;5031205;28;20458;-64
2023/07/31 06:46:13;;;;;;;3.03;2.25;;;15.40;99.90;;;;;;5020742;28;20487;-66
2023/07/31 06:48:40;;;;;;;3.38;3.08;;;15.40;99.90;;;;;;5019724;28;20052;-64
2023/07/31 06:51:07;;;;;;;4.53;2.83;;;15.50;99.90;;;;;;5024809;28;20041;-65
2023/07/31 06:53:34;;;;;;;5.82;3.20;;;15.50;99.90;;;;;;5026562;28;20061;-65
2023/07/31 06:56:00;;;;;;;2.83;2.53;;;15.60;99.90;;;;;;5028231;28;20399;-64
2023/07/31 06:58:27;;;;;;;5.85;2.47;;;15.70;99.90;;;;;;5027398;28;20041;-64
2023/07/31 07:00:55;;;;;;;2.97;2.33;;;15.80;99.90;;;;;;5029667;28;20049;-64
2023/07/31 07:03:21;;;;;;;4.55;2.05;;;15.80;99.90;;;;;;5025677;28;20041;-64
2023/07/31 07:05:48;;;;;;;2.63;2.00;;;15.90;99.90;;;;;;5023767;28;20061;-64
2023/07/31 07:08:16;;;;;;;4.22;2.25;;;16.00;99.90;;;;;;5025932;28;20041;-64
2023/07/31 07:10:43;;;;;;;3.83;2.08;;;16.20;99.90;;;;;;5029059;28;20071;-65
2023/07/31 07:13:12;;;;;;;5.80;2.72;;;16.40;99.90;;;;;;5026944;28;20056;-65
2023/07/31 07:15:39;;;;;;;3.25;2.05;;;16.50;99.90;;;;;;5027499;28;20057;-64
2023/07/31 07:18:07;;;;;;;2.30;2.10;;;16.70;99.90;;;;;;5026707;28;20060;-65
2023/07/31 07:20:34;;;;;;;4.65;2.45;;;16.90;99.90;;;;;;5025721;28;20139;-65
2023/07/31 07:23:01;;;;;;;5.53;2.08;;;17.00;99.90;;;;;;5025477;28;20087;-64
2023/07/31 07:25:27;;;;;;;5.22;2.08;;;17.10;99.90;;;;;;5023763;28;20104;-64
2023/07/31 07:27:54;;;;;;;2.03;1.60;;;17.10;99.90;;;;;;5030091;28;20037;-65
2023/07/31 07:30:22;;;;;;;2.40;1.83;;;17.10;99.90;;;;;;5026632;28;20068;-65
2023/07/31 07:32:49;;;;;;;2.55;1.40;;;17.10;99.90;;;;;;5020364;28;20053;-65
2023/07/31 07:35:16;;;;;;;2.50;1.48;;;17.10;99.90;;;;;;5025759;28;20052;-65
2023/07/31 07:37:43;;;;;;;5.32;1.60;;;17.10;99.90;;;;;;5024127;28;20132;-65
2023/07/31 07:40:10;;;;;;;3.03;1.75;;;17.00;99.90;;;;;;5023362;28;20050;-65
2023/07/31 07:42:37;;;;;;;1.80;1.52;;;17.00;99.90;;;;;;5028828;28;20048;-65
2023/07/31 07:45:04;;;;;;;3.08;2.10;;;17.10;99.90;;;;;;5023011;28;20045;-64
2023/07/31 07:47:31;;;;;;;2.05;1.95;;;17.20;99.90;;;;;;5030850;28;20064;-65
2023/07/31 07:49:58;;;;;;;3.15;1.67;;;17.10;99.90;;;;;;5021597;28;20116;-65
2023/07/31 07:52:25;;;;;;;3.33;1.98;;;17.10;99.90;;;;;;5024071;28;20098;-65
2023/07/31 07:54:52;;;;;;;2.90;1.63;;;17.10;99.90;;;;;;5027043;28;20473;-65
2023/07/31 07:57:19;;;;;;;3.15;1.70;;;17.10;99.90;;;;;;5022512;28;20045;-65
2023/07/31 07:59:45;;;;;;;4.95;1.92;;;17.20;99.90;;;;;;5025657;28;20140;-65
2023/07/31 08:02:12;;;;;;;4.30;1.70;;;17.30;99.90;;;;;;5022863;28;20049;-65
2023/07/31 08:04:39;;;;;;;5.55;2.72;;;17.30;99.90;;;;;;5024586;28;20383;-65
2023/07/31 08:07:06;;;;;;;3.05;1.58;;;17.40;99.90;;;;;;5022814;28;20057;-64
2023/07/31 08:09:33;;;;;;;2.63;1.83;;;17.30;99.90;;;;;;5024868;28;20045;-65
2023/07/31 08:12:03;;;;;;;2.00;1.80;;;17.20;99.90;;;;;;5024377;28;20061;-64
2023/07/31 08:14:30;;;;;;;6.22;1.90;;;17.20;99.90;;;;;;5024332;28;20052;-65
2023/07/31 08:17:00;;;;;;;4.32;1.95;;;17.20;99.90;;;;;;5024066;28;20040;-65
2023/07/31 08:19:26;;;;;;;2.65;1.63;;;17.20;99.90;;;;;;5020187;28;20058;-65
2023/07/31 08:21:53;;;;;;;4.78;1.58;;;17.30;99.90;;;;;;5025846;28;20686;-65
2023/07/31 08:24:24;;;;;;;4.18;2.20;;;17.40;99.90;;;;;;5021908;28;20037;-65
2023/07/31 08:26:51;;;;;;;2.60;1.95;;;17.40;99.90;;;;;;5023444;28;20483;-65
2023/07/31 08:29:18;;;;;;;5.45;2.50;;;17.40;99.90;;;;;;5023648;28;20041;-65
2023/07/31 08:31:45;;;;;;;11.13;2.97;;;17.40;99.90;;;;;;5022882;28;20502;-64
2023/07/31 08:34:11;;;;;;;2.83;1.83;;;17.40;99.90;;;;;;5022633;28;20050;-66
2023/07/31 08:36:38;;;;;;;5.18;2.17;;;17.40;99.90;;;;;;5027190;28;20088;-65
2023/07/31 08:39:06;;;;;;;2.97;1.73;;;17.50;99.90;;;;;;5025608;28;20060;-65
2023/07/31 08:41:39;;;;;;;2.85;1.70;;;17.70;99.90;;;;;;5020958;28;20041;-64
2023/07/31 08:44:07;;;;;;;2.90;1.40;;;17.70;99.90;;;;;;5021765;28;20041;-65
2023/07/31 08:46:35;;;;;;;4.32;2.00;;;17.60;99.90;;;;;;5024026;28;20081;-64
2023/07/31 08:49:05;;;;;;;5.97;2.58;;;17.60;99.90;;;;;;5022808;28;20041;-65
2023/07/31 08:51:35;;;;;;;2.85;1.95;;;17.60;99.90;;;;;;5023575;28;20050;-65
2023/07/31 08:54:03;;;;;;;2.33;2.13;;;17.60;99.90;;;;;;5021832;28;20048;-66
2023/07/31 08:56:32;;;;;;;2.72;2.50;;;17.50;99.90;;;;;;5022191;28;20624;-65
2023/07/31 08:59:03;;;;;;;5.68;2.50;;;17.40;99.90;;;;;;5024381;28;20517;-65
2023/07/31 09:01:33;;;;;;;4.57;2.92;;;17.40;99.90;;;;;;5018602;28;20050;-65
2023/07/31 09:04:01;;;;;;;4.03;1.92;;;17.40;99.90;;;;;;5025156;28;20041;-67
2023/07/31 09:06:30;;;;;;;5.85;3.67;;;17.30;99.90;;;;;;5022720;28;20045;-66
2023/07/31 09:08:57;;;;;;;6.60;2.60;;;17.30;99.90;;;;;;5022231;28;20056;-65
2023/07/31 09:11:25;;;;;;;4.50;2.22;;;17.40;99.90;;;;;;5023656;28;20041;-65
2023/07/31 09:13:53;;;;;;;5.93;2.72;;;17.50;99.90;;;;;;5022268;28;20663;-65
2023/07/31 09:16:33;;;;;;;3.65;2.25;;;17.60;99.90;;;;;;5023150;28;20053;-65
2023/07/31 09:19:03;;;;;;;3.33;2.35;;;17.70;99.90;;;;;;5022906;28;20052;-66
2023/07/31 09:21:30;;;;;;;4.93;2.10;;;17.90;99.90;;;;;;5024642;28;20103;-64
2023/07/31 09:23:57;;;;;;;4.50;2.25;;;18.00;99.90;;;;;;5020149;28;20124;-65
2023/07/31 09:26:33;;;;;;;4.28;1.85;;;18.20;99.90;;;;;;5022834;28;20536;-65
2023/07/31 09:29:03;;;;;;;7.88;2.55;;;18.20;99.90;;;;;;5024266;28;20095;-65
2023/07/31 09:31:43;;;;;;;3.72;2.00;;;18.10;99.90;;;;;;5024718;28;20135;-65
2023/07/31 09:34:16;;;;;;;3.70;2.10;;;18.20;99.90;;;;;;5022724;28;20047;-66
2023/07/31 09:36:45;;;;;;;4.60;3.60;;;18.00;99.90;;;;;;5023860;28;20786;-65
2023/07/31 09:39:13;;;;;;;5.88;2.38;;;18.00;99.90;;;;;;5020798;28;20091;-65
2023/07/31 09:41:43;;;;;;;3.55;2.88;;;18.10;99.90;;;;;;5024850;28;20069;-65
2023/07/31 09:44:10;;;;;;;8.15;3.83;;;18.10;99.90;;;;;;5023734;28;20091;-66
2023/07/31 09:46:38;;;;;;;7.50;2.30;;;18.30;99.90;;;;;;5024220;28;20081;-66
2023/07/31 09:49:06;;;;;;;3.45;2.33;;;18.50;99.90;;;;;;5025186;28;20040;-67
2023/07/31 09:51:38;;;;;;;5.35;2.10;;;18.60;99.90;;;;;;5020048;28;20418;-65
2023/07/31 09:54:16;;;;;;;2.70;2.03;;;18.50;99.90;;;;;;5019449;28;20610;-66
2023/07/31 09:56:45;;;;;;;7.25;2.55;;;18.40;99.90;;;;;;5018622;28;20104;-66
2023/07/31 09:59:16;;;;;;;4.95;2.60;;;18.30;99.90;;;;;;5022873;28;20255;-65
2023/07/31 10:01:46;;;;;;;3.85;2.45;;;18.50;99.90;;;;;;5021087;28;20716;-65
2023/07/31 10:04:14;;;;;;;5.18;2.75;;;18.80;99.90;;;;;;5022697;28;20037;-66
2023/07/31 10:06:43;;;;;;;2.25;1.88;;;18.80;99.90;;;;;;5023541;28;20053;-67
2023/07/31 10:09:15;;;;;;;3.40;1.60;;;18.90;99.90;;;;;;5025957;28;20424;-65
2023/07/31 10:11:50;;;;;;;3.72;1.98;;;18.90;99.90;;;;;;5020224;28;20060;-65
2023/07/31 10:14:21;;;;;;;1.42;0.98;;;19.00;99.90;;;;;;5023162;28;20041;-67
2023/07/31 10:16:49;;;;;;;3.63;1.48;;;19.10;99.90;;;;;;5021508;28;20090;-65
2023/07/31 10:19:18;;;;;;;6.82;1.83;;;19.30;99.90;;;;;;5022859;28;20271;-65
2023/07/31 10:21:46;;;;;;;3.38;1.42;;;19.60;99.90;;;;;;5022122;28;20405;-67
2023/07/31 10:24:13;;;;;;;2.13;1.17;;;19.70;99.90;;;;;;5024011;28;20095;-66
2023/07/31 10:26:44;;;;;;;2.63;1.30;;;19.80;99.90;;;;;;5027861;28;20057;-66
2023/07/31 10:29:12;;;;;;;2.45;1.10;;;19.80;99.90;;;;;;5025450;28;20111;-66
2023/07/31 10:31:40;;;;;;;3.15;2.38;;;20.00;99.90;;;;;;5024578;28;20046;-65
2023/07/31 10:34:08;;;;;;;9.55;2.15;;;20.10;99.90;;;;;;5025611;28;20549;-66
2023/07/31 10:36:35;;;;;;;4.20;1.42;;;20.00;99.90;;;;;;5028197;28;20056;-65
2023/07/31 10:39:04;;;;;;;2.92;1.52;;;20.00;99.90;;;;;;5023344;28;20382;-65
2023/07/31 10:41:31;;;;;;;5.10;1.65;;;19.90;99.90;;;;;;5023295;28;20123;-64
2023/07/31 10:44:00;;;;;;;3.95;1.60;;;20.00;99.90;;;;;;5023771;28;20099;-65
2023/07/31 10:46:29;;;;;;;2.67;1.15;;;19.90;99.90;;;;;;5023437;28;20049;-66
2023/07/31 10:49:02;;;;;;;3.85;1.38;;;19.90;99.90;;;;;;5023568;28;20107;-66
2023/07/31 10:51:35;;;;;;;2.30;0.73;;;19.80;99.90;;;;;;5024780;28;20124;-67
2023/07/31 10:54:14;;;;;;;2.70;1.58;;;20.00;99.90;;;;;;5024433;28;20046;-65
2023/07/31 10:56:45;;;;;;;4.47;1.10;;;20.10;99.90;;;;;;5029736;28;20041;-64
2023/07/31 10:59:13;;;;;;;1.48;1.00;;;20.30;99.90;;;;;;5022328;28;20483;-66
2023/07/31 11:01:52;;;;;;;7.03;1.83;;;20.40;99.90;;;;;;5027045;28;20038;-66
2023/07/31 11:04:24;;;;;;;2.90;1.08;;;20.60;99.90;;;;;;5028629;28;20457;-66
2023/07/31 11:06:59;;;;;;;2.40;1.15;;;20.70;99.90;;;;;;5026127;28;20107;-66
2023/07/31 11:09:31;;;;;;;9.60;2.22;;;20.50;99.90;;;;;;5041858;28;20175;-65
2023/07/31 11:11:59;;;;;;;4.05;1.50;;;20.50;99.90;;;;;;5028973;28;20133;-67
2023/07/31 11:14:27;;;;;;;3.78;1.30;;;20.60;99.90;;;;;;5020047;28;20107;-66
2023/07/31 11:16:53;;;;;;;4.50;1.08;;;20.50;99.90;;;;;;5026284;28;20065;-65
2023/07/31 11:19:24;;;;;;;3.75;1.52;;;20.50;99.90;;;;;;5025620;28;20058;-66
2023/07/31 11:21:53;;;;;;;2.70;1.60;;;20.70;99.90;;;;;;5027330;28;20140;-65
2023/07/31 11:24:20;;;;;;;4.15;1.40;;;20.70;99.90;;;;;;5024543;28;20124;-65
2023/07/31 11:26:51;;;;;;;3.40;1.73;;;20.70;99.90;;;;;;5026490;28;20041;-66
2023/07/31 11:29:27;;;;;;;3.30;1.15;;;20.60;99.90;;;;;;5025041;28;20466;-65
2023/07/31 11:31:54;;;;;;;2.45;1.08;;;20.80;99.90;;;;;;5024728;28;20033;-65
2023/07/31 11:34:21;;;;;;;5.25;1.40;;;20.70;99.90;;;;;;5022059;28;20279;-66
2023/07/31 11:36:55;;;;;;;1.23;0.90;;;20.70;99.90;;;;;;5026427;28;20049;-67
2023/07/31 11:39:22;;;;;;;4.78;1.23;;;20.50;99.90;;;;;;5025016;28;20063;-66
2023/07/31 11:41:49;;;;;;;5.93;1.45;;;20.60;99.90;;;;;;5027286;28;20056;-66
2023/07/31 11:44:15;;;;;;;2.65;1.63;;;20.70;99.90;;;;;;5022405;28;20462;-66
2023/07/31 11:46:57;;;;;;;3.33;1.67;;;20.70;99.90;;;;;;5025174;28;20183;-65
2023/07/31 11:49:24;;;;;;;1.63;0.90;;;20.70;99.90;;;;;;5027387;28;20045;-65
2023/07/31 11:51:51;;;;;;;5.78;1.02;;;21.00;99.90;;;;;;5027607;28;20072;-64
2023/07/31 11:54:18;;;;;;;4.55;1.30;;;21.00;99.90;;;;;;5023367;28;20128;-67
2023/07/31 11:56:45;;;;;;;2.47;0.60;;;21.00;99.90;;;;;;5024487;28;20103;-65
2023/07/31 11:59:12;;;;;;;3.17;1.77;;;21.20;99.90;;;;;;5023394;28;20045;-66
2023/07/31 12:01:39;;;;;;;2.40;1.02;;;21.20;99.90;;;;;;5022685;28;20880;-65
2023/07/31 12:04:07;;;;;;;4.32;1.88;;;21.30;99.90;;;;;;5021448;28;20041;-65
2023/07/31 12:06:37;;;;;;;2.88;1.30;;;21.00;99.90;;;;;;5026456;28;20053;-65
2023/07/31 12:09:05;;;;;;;3.90;1.23;;;20.90;99.90;;;;;;5022540;28;20535;-65
2023/07/31 12:11:44;;;;;;;3.80;1.48;;;21.00;99.90;;;;;;5023564;28;20043;-65
2023/07/31 12:14:28;;;;;;;1.52;1.17;;;21.00;99.90;;;;;;5026438;28;20073;-66
2023/07/31 12:16:56;;;;;;;3.95;1.20;;;21.00;99.90;;;;;;5028370;28;20048;-66
2023/07/31 12:19:29;;;;;;;5.93;2.58;;;21.00;99.90;;;;;;5028660;28;20044;-66
2023/07/31 12:21:57;;;;;;;3.95;1.00;;;21.00;99.90;;;;;;5026820;28;20046;-66
2023/07/31 12:24:26;;;;;;;4.95;1.45;;;21.10;99.90;;;;;;5024593;28;20901;-65
2023/07/31 12:26:54;;;;;;;1.92;0.80;;;21.00;99.90;;;;;;5026011;28;20559;-65
2023/07/31 12:29:21;;;;;;;2.35;1.20;;;21.00;99.90;;;;;;5024605;28;20053;-67
2023/07/31 12:31:48;;;;;;;3.33;1.42;;;21.00;99.90;;;;;;5021836;28;20426;-66
2023/07/31 12:34:23;;;;;;;7.10;2.05;;;21.10;99.90;;;;;;5024784;28;20041;-67
2023/07/31 12:36:52;;;;;;;4.05;1.50;;;21.00;99.90;;;;;;5024950;28;20467;-66
2023/07/31 12:39:19;;;;;;;3.08;0.98;;;21.20;99.90;;;;;;5024033;28;20087;-67
2023/07/31 12:41:45;;;;;;;2.22;1.15;;;21.20;99.90;;;;;;5020617;28;20064;-65
2023/07/31 12:44:12;;;;;;;3.53;1.40;;;21.30;99.90;;;;;;5023260;28;20462;-66
2023/07/31 12:46:39;;;;;;;3.20;0.82;;;21.30;99.90;;;;;;5024380;28;20495;-67
2023/07/31 12:49:07;;;;;;;3.28;1.10;;;21.50;99.90;;;;;;5025251;28;20041;-67